Seattle, WA

8:35 AM PDT on May 25, 2017 (GMT -0700)
First Hill | | Change Station

Elev 330 ft 47.61 °N, 122.32 °W | Updated 3 minutes ago

Partly Cloudy
Partly Cloudy
52.4 °F
Feels Like 52.4 °F
N
1.1
Wind Variable Wind from NE

Today
High -- | Low -- °F
--% Chance of Precip.
Yesterday
High -- | Low -- °F
Precip. -- in
Pressure 29.93 in
Visibility 10.0 miles
Clouds Mostly Cloudy 4000 ft
Dew Point 47 °F
Humidity 81%
Rainfall 0.00 in
Snow Depth Not available.
5:20 AM 8:52 PM
Waning Crescent, 0% visible
METAR KBFI 251453Z 13003KT 10SM BKN040 10/09 A2993 RMK AO2 SLP133 T01000089 50000
Pressure 29.93 in
Visibility 10.0 miles
Clouds Mostly Cloudy 4000 ft
Dew Point 47 °F
Humidity 81%
Rainfall 0.00 in
Snow Depth Not available.
5:20 AM 8:52 PM
Waning Crescent, 0% visible
METAR KBFI 251453Z 13003KT 10SM BKN040 10/09 A2993 RMK AO2 SLP133 T01000089 50000

Get Severe Weather Alerts

Thanks for signing up!

Be on the lookout for a verification email in your inbox.

You'll start receiving the daily forecast at 6 AM.

×

10-Day Weather Forecast

Almanac

Astronomy

May. 25, 2017 Rise Set
Actual Time
Civil Twilight
Nautical Twilight
Astronomical Twilight
Moon
Length of Visible Light
Length of Day
Tomorrow will be .
, % of the Moon is Illuminated

Today's Extremes

State Highs State Lows

Community

WunderPhotos

Category 6

Welcome to Category 6. This is the collective home for Weather Underground's featured writeups by Dr. Jeff Masters (right), Bob Henson (left), Chris Burt, and other regular contributors.

Nearby

Air Quality

  Air Quality AQ Index Pollutant
Not available.

Snow Depth

Station Depth Elevation

Earthquake Activity

City Distance Mag. Time & Date
Minimum magnitude displayed is 2.5.

Coastal Water Temperatures

Place Temperature

Stations

Nearby Weather Stations

Station Location Temp. Windchill Dew Point Humidity Wind Precip. Elev Updated Type
                   

Watches & Warnings

There are currently no watches in effect.